createdAt,value
2019-02-20T00:01:10.559Z,7.20
2019-02-20T00:03:47.518Z,13.00
2019-02-20T00:06:24.252Z,9.73
2019-02-20T00:08:57.033Z,11.50
2019-02-20T00:11:39.740Z,9.80
2019-02-20T00:14:15.959Z,10.13
2019-02-20T00:16:55.743Z,10.87
2019-02-20T00:19:36.325Z,8.07
2019-02-20T00:22:10.751Z,8.33
2019-02-20T00:24:48.539Z,5.80
2019-02-20T00:27:22.694Z,11.03
2019-02-20T00:30:03.888Z,7.27
2019-02-20T00:32:38.183Z,9.77
2019-02-20T00:35:13.588Z,6.90
2019-02-20T00:37:50.681Z,8.47
2019-02-20T00:40:27.219Z,6.33
2019-02-20T00:42:59.139Z,11.87
2019-02-20T00:46:05.005Z,8.00
2019-02-20T00:48:58.141Z,4.93
2019-02-20T00:54:40.239Z,12.77
2019-02-20T00:57:18.289Z,8.27
2019-02-20T00:59:51.944Z,9.73
2019-02-20T01:02:36.702Z,10.43
2019-02-20T01:05:11.873Z,8.70
2019-02-20T01:07:50.887Z,7.90
2019-02-20T01:10:23.946Z,7.67
2019-02-20T01:16:02.817Z,6.13
2019-02-20T01:18:43.951Z,6.97
2019-02-20T01:21:18.066Z,8.47
2019-02-20T01:23:57.140Z,7.67
2019-02-20T01:26:30.616Z,11.07
2019-02-20T01:29:09.240Z,8.40
2019-02-20T01:34:56.243Z,11.13
2019-02-20T01:37:29.957Z,11.13
2019-02-20T01:40:16.604Z,8.83
2019-02-20T01:51:47.650Z,9.93
2019-02-20T01:54:23.128Z,6.57
2019-02-20T01:57:09.528Z,7.83
2019-02-20T01:59:41.112Z,6.13
2019-02-20T02:02:26.259Z,9.53
2019-02-20T02:05:02.836Z,7.83
2019-02-20T02:07:39.701Z,10.33
2019-02-20T02:10:17.808Z,5.53
2019-02-20T02:12:53.632Z,10.97
2019-02-20T02:15:24.381Z,4.97
2019-02-20T02:18:00.389Z,8.67
2019-02-20T02:20:39.685Z,8.63
2019-02-20T02:23:23.446Z,9.40
2019-02-20T02:26:25.102Z,9.20
2019-02-20T02:34:52.401Z,7.63
2019-02-20T02:37:44.289Z,7.93
2019-02-20T02:40:36.865Z,6.03
2019-02-20T02:43:07.094Z,10.33
2019-02-20T02:45:46.136Z,7.63
2019-02-20T02:48:29.382Z,10.90
2019-02-20T02:51:12.982Z,7.87
2019-02-20T02:56:47.680Z,8.90
2019-02-20T03:05:14.868Z,8.37
2019-02-20T03:10:45.526Z,4.97
2019-02-20T03:13:17.634Z,6.40
2019-02-20T03:15:56.078Z,5.73
2019-02-20T03:18:38.245Z,7.93
2019-02-20T03:30:17.471Z,7.17
2019-02-20T03:33:03.532Z,7.47
2019-02-20T03:38:53.797Z,8.00
2019-02-20T03:47:22.792Z,7.37
2019-02-20T03:50:21.443Z,7.57
2019-02-20T03:55:54.742Z,6.43
2019-02-20T03:58:27.709Z,5.53
2019-02-20T04:04:03.992Z,5.43
2019-02-20T04:06:41.530Z,5.87
2019-02-20T04:09:12.611Z,4.77
2019-02-20T04:11:47.091Z,6.53
2019-02-20T04:14:19.735Z,6.00
2019-02-20T04:16:54.271Z,7.73
2019-02-20T04:19:36.309Z,6.20
2019-02-20T04:22:20.963Z,5.07
2019-02-20T04:45:23.074Z,9.27
2019-02-20T04:48:11.175Z,12.37
2019-02-20T04:57:04.683Z,8.17
2019-02-20T04:59:58.086Z,10.57
2019-02-20T05:02:49.798Z,8.67
2019-02-20T05:08:23.728Z,9.73
2019-02-20T05:11:03.787Z,12.70
2019-02-20T05:20:00.791Z,12.63
2019-02-20T05:26:08.478Z,10.90
2019-02-20T05:28:50.064Z,10.23
2019-02-20T05:31:48.421Z,8.67
2019-02-20T05:35:01.438Z,8.50
2019-02-20T05:37:29.346Z,9.03
2019-02-20T05:39:59.702Z,13.60
2019-02-20T05:54:44.520Z,8.27
2019-02-20T05:58:07.999Z,9.37
2019-02-20T06:00:14.457Z,12.40
2019-02-20T06:06:01.253Z,8.93
2019-02-20T06:08:42.373Z,8.70
2019-02-20T06:21:08.717Z,9.30
2019-02-20T06:32:33.714Z,6.00
2019-02-20T06:35:15.454Z,6.97
2019-02-20T06:37:52.823Z,7.97
2019-02-20T06:40:29.608Z,9.93
2019-02-20T06:43:11.000Z,5.80
2019-02-20T06:45:53.587Z,8.73
2019-02-20T06:48:30.921Z,8.80
2019-02-20T06:51:06.729Z,10.80
2019-02-20T06:53:44.368Z,8.23
2019-02-20T06:56:33.765Z,7.23
2019-02-20T07:02:12.299Z,9.10
2019-02-20T07:08:16.897Z,6.43
2019-02-20T07:10:54.986Z,7.90
2019-02-20T07:13:29.354Z,9.00
2019-02-20T07:16:20.726Z,7.53
2019-02-20T07:18:56.203Z,9.57
2019-02-20T07:21:49.797Z,7.50
2019-02-20T07:24:29.963Z,9.20
2019-02-20T07:27:09.598Z,8.97
2019-02-20T07:30:04.536Z,7.77
2019-02-20T07:32:35.982Z,8.50
2019-02-20T07:35:13.006Z,5.53
2019-02-20T07:37:47.650Z,6.00
2019-02-20T07:40:20.496Z,5.23
2019-02-20T07:42:54.938Z,8.10
2019-02-20T07:45:29.251Z,7.30
2019-02-20T07:48:01.615Z,8.87
2019-02-20T07:50:33.340Z,5.43
2019-02-20T07:53:05.608Z,10.67
2019-02-20T07:55:37.337Z,9.17
2019-02-20T07:58:13.722Z,6.27
2019-02-20T08:00:46.066Z,9.23
2019-02-20T08:03:19.440Z,9.17
2019-02-20T08:05:55.378Z,9.77
2019-02-20T08:08:31.363Z,9.57
2019-02-20T08:11:02.912Z,8.47
2019-02-20T08:13:39.363Z,9.13
2019-02-20T08:16:13.587Z,7.77
2019-02-20T08:18:48.824Z,7.17
2019-02-20T08:21:24.196Z,7.67
2019-02-20T08:23:57.211Z,8.73
2019-02-20T08:26:32.911Z,6.67
2019-02-20T08:29:07.061Z,4.57
2019-02-20T08:31:36.924Z,6.90
2019-02-20T08:34:14.995Z,6.03
2019-02-20T08:36:48.934Z,8.63
2019-02-20T08:39:29.560Z,7.23
2019-02-20T08:42:08.691Z,4.07
2019-02-20T08:44:40.072Z,6.57
2019-02-20T08:47:15.002Z,5.73
2019-02-20T08:49:55.453Z,6.03
2019-02-20T08:52:29.741Z,6.43
2019-02-20T08:54:59.614Z,6.03
2019-02-20T08:57:35.755Z,5.53
2019-02-20T09:00:13.170Z,6.10
2019-02-20T09:02:43.582Z,6.53
2019-02-20T09:05:16.541Z,5.53
2019-02-20T09:07:57.337Z,8.80
2019-02-20T09:10:25.407Z,9.57
2019-02-20T09:13:02.427Z,8.60
2019-02-20T09:15:35.435Z,6.73
2019-02-20T09:18:07.721Z,6.97
2019-02-20T09:20:39.457Z,8.80
2019-02-20T09:23:12.601Z,6.60
2019-02-20T09:25:49.069Z,8.93
2019-02-20T09:28:20.106Z,3.50
2019-02-20T09:30:53.121Z,7.90
2019-02-20T09:33:25.711Z,6.43
2019-02-20T09:35:57.735Z,7.23
2019-02-20T09:38:31.697Z,9.53
2019-02-20T09:41:05.861Z,8.63
2019-02-20T09:43:41.715Z,9.00
2019-02-20T09:46:12.819Z,5.37
2019-02-20T09:48:43.226Z,7.87
2019-02-20T09:51:17.144Z,3.67
2019-02-20T09:53:49.086Z,7.53
2019-02-20T09:56:18.895Z,6.67
2019-02-20T09:58:54.676Z,5.20
2019-02-20T10:01:27.043Z,8.53
2019-02-20T10:03:59.645Z,10.90
2019-02-20T10:06:32.746Z,5.57
2019-02-20T10:09:04.133Z,4.50
2019-02-20T10:11:37.657Z,6.27
2019-02-20T10:14:09.685Z,6.90
2019-02-20T10:16:41.205Z,6.70
2019-02-20T10:19:12.589Z,11.23
2019-02-20T10:21:44.994Z,4.93
2019-02-20T10:24:17.262Z,6.53
2019-02-20T10:26:48.302Z,6.87
2019-02-20T10:29:19.852Z,5.20
2019-02-20T10:31:51.369Z,6.23
2019-02-20T10:34:24.934Z,5.37
2019-02-20T10:36:58.085Z,5.33
2019-02-20T10:39:34.759Z,4.80
2019-02-20T10:42:06.208Z,9.33
2019-02-20T10:44:38.275Z,5.30
2019-02-20T10:47:12.177Z,8.87
2019-02-20T10:49:46.607Z,10.37
2019-02-20T10:52:20.194Z,9.20
2019-02-20T10:54:57.601Z,5.43
2019-02-20T10:57:27.194Z,7.27
2019-02-20T11:00:06.487Z,7.73
2019-02-20T11:02:42.840Z,3.87
2019-02-20T11:05:15.069Z,5.27
2019-02-20T11:07:46.449Z,5.50
2019-02-20T11:10:24.042Z,6.93
2019-02-20T11:12:54.447Z,8.43
2019-02-20T11:15:25.032Z,7.77
2019-02-20T11:17:55.389Z,6.80
2019-02-20T11:20:27.656Z,7.37
2019-02-20T11:22:58.863Z,6.50
2019-02-20T11:31:01.255Z,8.77
2019-02-20T11:33:35.425Z,7.63
2019-02-20T11:36:09.959Z,6.97
2019-02-20T11:38:42.508Z,7.93
2019-02-20T11:41:32.780Z,8.97
2019-02-20T11:44:06.824Z,7.07
2019-02-20T11:46:40.429Z,6.40
2019-02-20T11:49:11.853Z,8.30
2019-02-20T11:51:46.060Z,6.20
2019-02-20T11:54:18.134Z,6.80
2019-02-20T11:56:59.448Z,6.60
2019-02-20T11:59:37.941Z,8.83
2019-02-20T12:02:07.852Z,9.57
2019-02-20T12:04:42.991Z,6.10
2019-02-20T12:07:19.858Z,3.97
2019-02-20T12:09:54.484Z,6.93
2019-02-20T12:12:30.029Z,4.13
2019-02-20T12:14:59.910Z,7.63
2019-02-20T12:17:33.344Z,4.50
2019-02-20T12:20:08.476Z,7.10
2019-02-20T12:22:47.115Z,7.57
2019-02-20T12:25:28.104Z,4.93
2019-02-20T12:28:00.021Z,4.90
2019-02-20T12:30:33.691Z,11.70
2019-02-20T12:33:06.040Z,3.37
2019-02-20T12:35:39.358Z,5.00
2019-02-20T12:38:12.560Z,5.23
2019-02-20T12:40:42.382Z,9.87
2019-02-20T12:43:13.260Z,6.90
2019-02-20T12:45:43.222Z,7.23
2019-02-20T12:48:16.696Z,10.03
2019-02-20T12:50:46.912Z,6.67
2019-02-20T12:53:18.944Z,7.03
2019-02-20T12:55:50.330Z,13.87
2019-02-20T12:58:22.535Z,10.10
2019-02-20T13:00:55.485Z,3.70
2019-02-20T13:03:28.450Z,6.37
2019-02-20T13:05:59.052Z,7.70
2019-02-20T13:08:28.916Z,11.80
2019-02-20T13:10:59.955Z,6.93
2019-02-20T13:13:32.154Z,6.43
2019-02-20T13:16:09.568Z,8.47
2019-02-20T13:18:40.705Z,8.43
2019-02-20T13:21:12.971Z,12.40
2019-02-20T13:23:47.494Z,5.97
2019-02-20T13:26:18.225Z,5.80
2019-02-20T13:28:51.621Z,8.17
2019-02-20T13:31:25.865Z,8.40
2019-02-20T13:34:00.245Z,8.60
2019-02-20T13:36:33.069Z,7.77
2019-02-20T13:39:05.822Z,8.37
2019-02-20T13:41:39.152Z,8.13
2019-02-20T13:44:09.829Z,11.80
2019-02-20T13:46:43.133Z,8.97
2019-02-20T13:49:14.629Z,7.80
2019-02-20T13:51:46.003Z,9.73
2019-02-20T13:54:21.231Z,12.80
2019-02-20T13:57:01.913Z,7.47
2019-02-20T13:59:37.092Z,6.93
2019-02-20T14:02:14.739Z,12.63
2019-02-20T14:04:47.906Z,13.93
2019-02-20T14:07:18.411Z,6.87
2019-02-20T14:09:48.425Z,8.67
2019-02-20T14:12:21.720Z,8.67
2019-02-20T14:14:52.423Z,7.30
2019-02-20T14:17:28.948Z,11.77
2019-02-20T14:19:59.199Z,8.60
2019-02-20T14:22:34.837Z,6.13
2019-02-20T14:25:09.356Z,16.43
2019-02-20T14:27:41.174Z,12.87
2019-02-20T14:30:17.733Z,7.23
2019-02-20T14:32:49.044Z,8.17
2019-02-20T14:35:48.241Z,6.53
2019-02-20T14:38:18.155Z,4.97
2019-02-20T14:40:57.600Z,7.87
2019-02-20T14:43:34.015Z,8.63
2019-02-20T14:46:14.369Z,5.27
2019-02-20T14:48:55.516Z,9.23
2019-02-20T14:51:36.377Z,7.23
2019-02-20T14:57:40.323Z,8.97
2019-02-20T15:00:23.335Z,7.30
2019-02-20T15:05:54.690Z,6.03
2019-02-20T15:08:30.087Z,8.63
2019-02-20T15:11:10.282Z,5.40
2019-02-20T15:13:49.244Z,12.30
2019-02-20T15:22:32.854Z,13.93
2019-02-20T15:25:07.675Z,13.00
2019-02-20T15:30:36.630Z,10.23
2019-02-20T15:33:10.321Z,6.70
2019-02-20T15:39:19.756Z,10.77
2019-02-20T15:44:52.375Z,7.93
2019-02-20T15:47:26.533Z,8.33
2019-02-20T15:56:36.909Z,10.83
2019-02-20T15:59:43.561Z,13.13
2019-02-20T16:02:20.790Z,10.60
2019-02-20T16:04:58.059Z,8.40
2019-02-20T16:07:29.398Z,7.57
2019-02-20T16:10:13.787Z,10.73
2019-02-20T16:12:48.289Z,7.33
2019-02-20T16:15:18.312Z,6.77
2019-02-20T16:17:50.938Z,5.70
2019-02-20T16:20:21.873Z,5.70
2019-02-20T16:22:59.396Z,11.40
2019-02-20T16:25:33.631Z,11.60
2019-02-20T16:28:03.529Z,8.77
2019-02-20T16:30:33.537Z,10.37
2019-02-20T16:33:08.229Z,12.00
2019-02-20T16:35:39.714Z,8.70
2019-02-20T16:38:10.058Z,6.37
2019-02-20T16:40:42.415Z,11.17
2019-02-20T16:43:13.348Z,9.77
2019-02-20T16:45:43.165Z,6.77
2019-02-20T16:48:14.532Z,9.47
2019-02-20T16:50:45.534Z,10.80
2019-02-20T16:53:17.383Z,10.90
2019-02-20T16:55:49.068Z,8.67
2019-02-20T16:58:21.684Z,7.37
2019-02-20T17:00:55.042Z,7.37
2019-02-20T17:03:32.341Z,10.63
2019-02-20T17:06:12.779Z,10.67
2019-02-20T17:08:41.788Z,10.00
2019-02-20T17:11:14.119Z,8.33
2019-02-20T17:13:47.321Z,12.77
2019-02-20T17:16:17.596Z,6.87
2019-02-20T17:18:48.944Z,10.03
2019-02-20T17:21:22.140Z,4.97
2019-02-20T17:23:55.220Z,5.47
2019-02-20T17:26:35.883Z,6.90
2019-02-20T17:29:08.295Z,6.90
2019-02-20T17:31:43.453Z,8.97
2019-02-20T17:34:22.723Z,9.03
2019-02-20T17:39:57.302Z,10.87
2019-02-20T17:42:27.215Z,7.77
2019-02-20T17:44:57.160Z,8.73
2019-02-20T17:47:27.770Z,8.23
2019-02-20T17:49:58.872Z,7.50
2019-02-20T17:52:30.259Z,9.03
2019-02-20T17:55:03.383Z,12.47
2019-02-20T17:57:37.650Z,6.00
2019-02-20T18:00:23.862Z,9.83
2019-02-20T18:02:56.558Z,6.63
2019-02-20T18:05:27.020Z,8.77
2019-02-20T18:07:58.647Z,6.63
2019-02-20T18:10:29.513Z,8.30
2019-02-20T18:13:00.760Z,7.63
2019-02-20T18:15:32.292Z,7.00
2019-02-20T18:18:03.572Z,8.37
2019-02-20T18:20:33.751Z,5.17
2019-02-20T18:23:04.635Z,12.07
2019-02-20T18:25:37.938Z,7.67
2019-02-20T18:28:07.793Z,9.27
2019-02-20T18:30:41.119Z,6.77
2019-02-20T18:33:15.273Z,9.73
2019-02-20T18:35:46.160Z,11.93
2019-02-20T18:38:16.628Z,6.57
2019-02-20T18:40:48.094Z,7.67
2019-02-20T18:43:23.919Z,5.97
2019-02-20T18:46:06.682Z,9.40
2019-02-20T18:48:41.501Z,12.23
2019-02-20T18:54:46.939Z,9.90
2019-02-20T18:57:28.166Z,9.27
2019-02-20T19:00:02.326Z,8.17
2019-02-20T19:02:50.451Z,13.70
2019-02-20T19:05:38.755Z,13.37
2019-02-20T19:12:19.908Z,8.77
2019-02-20T19:15:15.120Z,8.87
2019-02-20T19:18:07.579Z,11.10
2019-02-20T19:20:49.501Z,9.30
2019-02-20T19:23:47.608Z,10.37
2019-02-20T19:33:22.978Z,15.87
2019-02-20T19:36:04.703Z,11.63
2019-02-20T19:38:59.199Z,14.37
2019-02-20T19:41:46.289Z,9.70
2019-02-20T19:48:28.408Z,16.03
2019-02-20T19:51:25.714Z,10.40
2019-02-20T19:54:33.122Z,14.57
2019-02-20T19:57:39.044Z,17.33
2019-02-20T20:00:44.454Z,13.93
2019-02-20T20:03:38.257Z,13.67
2019-02-20T20:07:03.934Z,18.07
2019-02-20T20:16:35.446Z,15.73
2019-02-20T20:19:37.602Z,14.23
2019-02-20T20:22:49.838Z,14.43
2019-02-20T20:25:48.690Z,17.43
2019-02-20T20:28:32.767Z,15.60
2019-02-20T20:31:30.888Z,14.97
2019-02-20T20:34:11.173Z,19.13
2019-02-20T20:37:04.432Z,17.70
2019-02-20T20:40:13.735Z,16.17
2019-02-20T20:43:10.540Z,17.60
2019-02-20T20:46:02.850Z,11.37
2019-02-20T20:49:09.817Z,16.13
2019-02-20T20:51:45.993Z,20.77
2019-02-20T20:54:38.989Z,17.67
2019-02-20T20:57:49.827Z,14.87
2019-02-20T21:00:57.247Z,13.90
2019-02-20T21:03:40.142Z,20.20
2019-02-20T21:06:26.542Z,15.10
2019-02-20T21:09:00.936Z,18.73
2019-02-20T21:11:50.841Z,14.63
2019-02-20T21:14:36.980Z,18.77
2019-02-20T21:17:42.351Z,21.27
2019-02-20T21:20:48.467Z,15.07
2019-02-20T21:24:02.181Z,16.67
2019-02-20T21:26:51.798Z,21.93
2019-02-20T21:29:56.548Z,13.53
2019-02-20T21:32:56.101Z,15.30
2019-02-20T21:35:31.516Z,16.87
2019-02-20T21:38:25.444Z,14.53
2019-02-20T21:41:36.987Z,15.00
2019-02-20T21:44:45.071Z,11.27
2019-02-20T21:47:23.613Z,15.67
2019-02-20T21:50:24.483Z,14.07
2019-02-20T21:53:17.262Z,17.53
2019-02-20T21:59:39.069Z,12.53
2019-02-20T22:02:36.332Z,12.80
2019-02-20T22:05:26.367Z,15.03
2019-02-20T22:08:43.285Z,18.80
2019-02-20T22:11:34.049Z,12.93
2019-02-20T22:14:32.250Z,16.57
2019-02-20T22:17:32.244Z,17.10
2019-02-20T22:20:19.454Z,15.83
2019-02-20T22:23:16.883Z,19.10
2019-02-20T22:26:09.605Z,13.73
2019-02-20T22:29:15.908Z,13.63
2019-02-20T22:32:03.138Z,17.70
2019-02-20T22:37:47.510Z,23.23
2019-02-20T22:40:28.298Z,22.47
2019-02-20T22:49:58.164Z,16.43
2019-02-20T22:53:12.083Z,17.83
2019-02-20T23:46:03.838Z,15.33
2019-02-20T23:54:50.549Z,16.70
